sensor_id;sensor_type;location;lat;lon;timestamp;temperature;humidity
2439;DHT22;14509;47.992;7.848;2024-03-02T00:00:52;10.70;50.40
2439;DHT22;14509;47.992;7.848;2024-03-02T00:02:54;10.60;50.30
2439;DHT22;14509;47.992;7.848;2024-03-02T00:04:56;9.90;50.90
2439;DHT22;14509;47.992;7.848;2024-03-02T00:06:58;10.40;50.80
2439;DHT22;14509;47.992;7.848;2024-03-02T00:09:00;10.40;50.90
2439;DHT22;14509;47.992;7.848;2024-03-02T00:11:02;10.30;50.80
2439;DHT22;14509;47.992;7.848;2024-03-02T00:13:04;10.40;51.00
2439;DHT22;14509;47.992;7.848;2024-03-02T00:15:22;10.30;51.00
2439;DHT22;14509;47.992;7.848;2024-03-02T00:17:30;10.30;51.00
2439;DHT22;14509;47.992;7.848;2024-03-02T00:19:32;10.30;51.00
2439;DHT22;14509;47.992;7.848;2024-03-02T00:21:34;10.30;51.00
2439;DHT22;14509;47.992;7.848;2024-03-02T00:23:35;10.20;51.00
2439;DHT22;14509;47.992;7.848;2024-03-02T00:25:39;10.20;51.10
2439;DHT22;14509;47.992;7.848;2024-03-02T00:27:40;10.20;51.10
2439;DHT22;14509;47.992;7.848;2024-03-02T00:29:42;10.20;51.20
2439;DHT22;14509;47.992;7.848;2024-03-02T00:31:44;10.10;51.10
2439;DHT22;14509;47.992;7.848;2024-03-02T00:33:48;10.20;51.10
2439;DHT22;14509;47.992;7.848;2024-03-02T00:35:50;10.10;51.00
2439;DHT22;14509;47.992;7.848;2024-03-02T00:37:51;10.10;51.00
2439;DHT22;14509;47.992;7.848;2024-03-02T00:39:53;10.10;51.00
2439;DHT22;14509;47.992;7.848;2024-03-02T00:41:55;10.20;51.00
2439;DHT22;14509;47.992;7.848;2024-03-02T00:43:58;10.10;50.90
2439;DHT22;14509;47.992;7.848;2024-03-02T00:46:01;10.20;51.00
2439;DHT22;14509;47.992;7.848;2024-03-02T00:48:02;10.20;51.00
2439;DHT22;14509;47.992;7.848;2024-03-02T00:50:07;10.20;51.00
2439;DHT22;14509;47.992;7.848;2024-03-02T00:52:10;10.20;51.00
2439;DHT22;14509;47.992;7.848;2024-03-02T00:54:14;10.20;50.90
2439;DHT22;14509;47.992;7.848;2024-03-02T00:56:16;10.20;50.90
2439;DHT22;14509;47.992;7.848;2024-03-02T00:58:17;10.20;50.70
2439;DHT22;14509;47.992;7.848;2024-03-02T01:00:20;10.20;50.60
2439;DHT22;14509;47.992;7.848;2024-03-02T01:02:22;10.30;50.60
2439;DHT22;14509;47.992;7.848;2024-03-02T01:04:24;10.20;50.50
2439;DHT22;14509;47.992;7.848;2024-03-02T01:06:27;10.20;50.40
2439;DHT22;14509;47.992;7.848;2024-03-02T01:08:29;10.30;50.50
2439;DHT22;14509;47.992;7.848;2024-03-02T01:10:31;10.50;50.60
2439;DHT22;14509;47.992;7.848;2024-03-02T01:12:33;10.30;50.50
2439;DHT22;14509;47.992;7.848;2024-03-02T01:14:34;10.30;50.40
2439;DHT22;14509;47.992;7.848;2024-03-02T01:16:36;10.30;50.50
2439;DHT22;14509;47.992;7.848;2024-03-02T01:18:38;10.30;50.50
2439;DHT22;14509;47.992;7.848;2024-03-02T01:20:40;10.30;50.60
2439;DHT22;14509;47.992;7.848;2024-03-02T01:22:42;10.30;50.50
2439;DHT22;14509;47.992;7.848;2024-03-02T01:24:44;10.30;50.40
2439;DHT22;14509;47.992;7.848;2024-03-02T01:26:46;10.40;50.50
2439;DHT22;14509;47.992;7.848;2024-03-02T01:28:48;10.30;50.40
2439;DHT22;14509;47.992;7.848;2024-03-02T01:30:49;10.30;50.30
2439;DHT22;14509;47.992;7.848;2024-03-02T01:32:50;10.30;50.40
2439;DHT22;14509;47.992;7.848;2024-03-02T01:34:52;10.30;50.40
2439;DHT22;14509;47.992;7.848;2024-03-02T01:36:54;10.20;50.30
2439;DHT22;14509;47.992;7.848;2024-03-02T01:38:57;10.90;51.00
2439;DHT22;14509;47.992;7.848;2024-03-02T01:40:59;10.20;50.40
2439;DHT22;14509;47.992;7.848;2024-03-02T01:43:00;10.20;50.30
2439;DHT22;14509;47.992;7.848;2024-03-02T01:45:04;10.20;50.50
2439;DHT22;14509;47.992;7.848;2024-03-02T01:47:06;10.20;50.60
2439;DHT22;14509;47.992;7.848;2024-03-02T01:49:08;10.30;50.60
2439;DHT22;14509;47.992;7.848;2024-03-02T01:51:10;10.20;50.50
2439;DHT22;14509;47.992;7.848;2024-03-02T01:53:12;10.20;50.60
2439;DHT22;14509;47.992;7.848;2024-03-02T01:55:15;10.20;50.60
2439;DHT22;14509;47.992;7.848;2024-03-02T01:57:16;10.20;50.50
2439;DHT22;14509;47.992;7.848;2024-03-02T01:59:18;10.10;50.60
2439;DHT22;14509;47.992;7.848;2024-03-02T02:01:20;10.20;50.60
2439;DHT22;14509;47.992;7.848;2024-03-02T02:03:22;10.20;50.60
2439;DHT22;14509;47.992;7.848;2024-03-02T02:05:24;10.20;50.60
2439;DHT22;14509;47.992;7.848;2024-03-02T02:07:26;10.20;50.40
2439;DHT22;14509;47.992;7.848;2024-03-02T02:09:26;10.20;50.30
2439;DHT22;14509;47.992;7.848;2024-03-02T02:11:30;10.20;50.20
2439;DHT22;14509;47.992;7.848;2024-03-02T02:13:31;10.20;50.70
2439;DHT22;14509;47.992;7.848;2024-03-02T02:15:33;10.20;50.20
2439;DHT22;14509;47.992;7.848;2024-03-02T02:17:36;10.20;50.30
2439;DHT22;14509;47.992;7.848;2024-03-02T02:19:37;10.20;50.50
2439;DHT22;14509;47.992;7.848;2024-03-02T02:21:43;10.20;50.30
2439;DHT22;14509;47.992;7.848;2024-03-02T02:23:45;10.20;50.20
2439;DHT22;14509;47.992;7.848;2024-03-02T02:25:49;10.20;50.70
2439;DHT22;14509;47.992;7.848;2024-03-02T02:27:50;10.30;50.10
2439;DHT22;14509;47.992;7.848;2024-03-02T02:29:51;10.20;50.10
2439;DHT22;14509;47.992;7.848;2024-03-02T02:31:53;10.20;50.20
2439;DHT22;14509;47.992;7.848;2024-03-02T02:33:54;10.20;50.20
2439;DHT22;14509;47.992;7.848;2024-03-02T02:35:56;10.20;50.20
2439;DHT22;14509;47.992;7.848;2024-03-02T02:37:59;10.20;50.10
2439;DHT22;14509;47.992;7.848;2024-03-02T02:40:01;11.00;50.80
2439;DHT22;14509;47.992;7.848;2024-03-02T02:42:05;10.20;50.10
2439;DHT22;14509;47.992;7.848;2024-03-02T02:44:07;10.20;50.20
2439;DHT22;14509;47.992;7.848;2024-03-02T02:46:12;10.10;50.20
2439;DHT22;14509;47.992;7.848;2024-03-02T02:48:13;10.10;50.30
2439;DHT22;14509;47.992;7.848;2024-03-02T02:50:15;10.10;50.30
2439;DHT22;14509;47.992;7.848;2024-03-02T02:52:17;10.10;50.30
2439;DHT22;14509;47.992;7.848;2024-03-02T02:54:20;10.10;50.30
2439;DHT22;14509;47.992;7.848;2024-03-02T02:56:22;10.20;50.40
2439;DHT22;14509;47.992;7.848;2024-03-02T02:58:24;10.10;50.40
2439;DHT22;14509;47.992;7.848;2024-03-02T03:00:26;10.10;50.30
2439;DHT22;14509;47.992;7.848;2024-03-02T03:02:28;10.10;50.30
2439;DHT22;14509;47.992;7.848;2024-03-02T03:04:28;10.10;50.30
2439;DHT22;14509;47.992;7.848;2024-03-02T03:06:30;10.10;50.20
2439;DHT22;14509;47.992;7.848;2024-03-02T03:08:32;10.10;50.20
2439;DHT22;14509;47.992;7.848;2024-03-02T03:10:35;10.20;50.10
2439;DHT22;14509;47.992;7.848;2024-03-02T03:12:37;10.20;50.10
2439;DHT22;14509;47.992;7.848;2024-03-02T03:14:40;10.10;50.00
2439;DHT22;14509;47.992;7.848;2024-03-02T03:16:42;10.10;50.10
2439;DHT22;14509;47.992;7.848;2024-03-02T03:18:44;10.10;50.10
2439;DHT22;14509;47.992;7.848;2024-03-02T03:20:45;10.10;50.10
2439;DHT22;14509;47.992;7.848;2024-03-02T03:22:47;10.10;50.00
2439;DHT22;14509;47.992;7.848;2024-03-02T03:24:49;10.10;50.00
2439;DHT22;14509;47.992;7.848;2024-03-02T03:26:53;10.10;50.50
2439;DHT22;14509;47.992;7.848;2024-03-02T03:28:55;10.20;50.00
2439;DHT22;14509;47.992;7.848;2024-03-02T03:30:56;10.10;50.00
2439;DHT22;14509;47.992;7.848;2024-03-02T03:32:57;10.10;49.90
2439;DHT22;14509;47.992;7.848;2024-03-02T03:34:59;10.10;49.90
2439;DHT22;14509;47.992;7.848;2024-03-02T03:37:00;9.90;50.80
2439;DHT22;14509;47.992;7.848;2024-03-02T03:39:02;10.10;50.20
2439;DHT22;14509;47.992;7.848;2024-03-02T03:41:05;10.10;50.00
2439;DHT22;14509;47.992;7.848;2024-03-02T03:43:08;10.10;50.10
2439;DHT22;14509;47.992;7.848;2024-03-02T03:45:10;10.10;50.10
2439;DHT22;14509;47.992;7.848;2024-03-02T03:47:12;10.10;50.20
2439;DHT22;14509;47.992;7.848;2024-03-02T03:49:13;10.10;50.20
2439;DHT22;14509;47.992;7.848;2024-03-02T03:51:15;10.10;50.10
2439;DHT22;14509;47.992;7.848;2024-03-02T03:53:17;10.10;49.90
2439;DHT22;14509;47.992;7.848;2024-03-02T03:55:19;10.20;49.90
2439;DHT22;14509;47.992;7.848;2024-03-02T03:57:21;10.20;49.90
2439;DHT22;14509;47.992;7.848;2024-03-02T03:59:24;10.20;49.80
2439;DHT22;14509;47.992;7.848;2024-03-02T04:01:26;10.10;49.70
2439;DHT22;14509;47.992;7.848;2024-03-02T04:03:27;10.10;49.80
2439;DHT22;14509;47.992;7.848;2024-03-02T04:05:29;10.10;49.70
2439;DHT22;14509;47.992;7.848;2024-03-02T04:07:31;10.10;49.70
2439;DHT22;14509;47.992;7.848;2024-03-02T04:09:32;10.10;49.80
2439;DHT22;14509;47.992;7.848;2024-03-02T04:11:34;10.10;49.80
2439;DHT22;14509;47.992;7.848;2024-03-02T04:13:37;10.10;49.80
2439;DHT22;14509;47.992;7.848;2024-03-02T04:15:40;10.10;49.70
2439;DHT22;14509;47.992;7.848;2024-03-02T04:17:42;10.10;49.60
2439;DHT22;14509;47.992;7.848;2024-03-02T04:19:42;10.10;49.50
2439;DHT22;14509;47.992;7.848;2024-03-02T04:21:44;10.10;49.50
2439;DHT22;14509;47.992;7.848;2024-03-02T04:23:46;10.10;49.50
2439;DHT22;14509;47.992;7.848;2024-03-02T04:25:48;10.10;49.60
2439;DHT22;14509;47.992;7.848;2024-03-02T04:27:50;10.10;49.60
2439;DHT22;14509;47.992;7.848;2024-03-02T04:29:52;10.10;49.50
2439;DHT22;14509;47.992;7.848;2024-03-02T04:31:54;10.20;49.40
2439;DHT22;14509;47.992;7.848;2024-03-02T04:33:56;10.20;49.30
2439;DHT22;14509;47.992;7.848;2024-03-02T04:35:58;10.20;49.20
2439;DHT22;14509;47.992;7.848;2024-03-02T04:37:59;10.10;49.30
2439;DHT22;14509;47.992;7.848;2024-03-02T04:40:01;10.20;49.40
2439;DHT22;14509;47.992;7.848;2024-03-02T04:42:02;10.10;49.20
2439;DHT22;14509;47.992;7.848;2024-03-02T04:44:04;10.20;49.90
2439;DHT22;14509;47.992;7.848;2024-03-02T04:46:08;10.20;49.20
2439;DHT22;14509;47.992;7.848;2024-03-02T04:48:12;10.30;49.10
2439;DHT22;14509;47.992;7.848;2024-03-02T04:50:15;10.40;49.60
2439;DHT22;14509;47.992;7.848;2024-03-02T04:52:16;10.40;48.80
2439;DHT22;14509;47.992;7.848;2024-03-02T04:54:18;10.50;48.70
2439;DHT22;14509;47.992;7.848;2024-03-02T04:56:19;10.60;48.40
2439;DHT22;14509;47.992;7.848;2024-03-02T04:58:40;10.80;48.20
2439;DHT22;14509;47.992;7.848;2024-03-02T05:00:41;11.30;48.20
2439;DHT22;14509;47.992;7.848;2024-03-02T05:02:46;11.80;48.30
2439;DHT22;14509;47.992;7.848;2024-03-02T05:04:50;11.00;47.30
2439;DHT22;14509;47.992;7.848;2024-03-02T05:06:52;11.00;47.30
2439;DHT22;14509;47.992;7.848;2024-03-02T05:08:55;11.10;47.10
2439;DHT22;14509;47.992;7.848;2024-03-02T05:10:57;11.20;47.00
2439;DHT22;14509;47.992;7.848;2024-03-02T05:13:19;11.20;46.70
2439;DHT22;14509;47.992;7.848;2024-03-02T05:15:21;11.70;47.10
2439;DHT22;14509;47.992;7.848;2024-03-02T05:17:22;11.30;46.70
2439;DHT22;14509;47.992;7.848;2024-03-02T05:19:24;11.30;46.60
2439;DHT22;14509;47.992;7.848;2024-03-02T05:21:27;11.50;46.60
2439;DHT22;14509;47.992;7.848;2024-03-02T05:23:29;11.30;46.30
2439;DHT22;14509;47.992;7.848;2024-03-02T05:25:31;11.30;46.20
2439;DHT22;14509;47.992;7.848;2024-03-02T05:27:33;11.40;46.20
2439;DHT22;14509;47.992;7.848;2024-03-02T05:29:34;11.40;46.20
2439;DHT22;14509;47.992;7.848;2024-03-02T05:31:36;11.80;46.50
2439;DHT22;14509;47.992;7.848;2024-03-02T05:33:37;11.40;46.10
2439;DHT22;14509;47.992;7.848;2024-03-02T05:35:39;11.50;46.10
2439;DHT22;14509;47.992;7.848;2024-03-02T05:37:42;11.40;46.10
2439;DHT22;14509;47.992;7.848;2024-03-02T05:39:43;11.40;46.20
2439;DHT22;14509;47.992;7.848;2024-03-02T05:41:45;11.40;46.30
2439;DHT22;14509;47.992;7.848;2024-03-02T05:43:47;11.40;46.30
2439;DHT22;14509;47.992;7.848;2024-03-02T05:45:50;11.50;46.30
2439;DHT22;14509;47.992;7.848;2024-03-02T05:47:51;11.50;46.10
2439;DHT22;14509;47.992;7.848;2024-03-02T05:49:53;11.60;45.90
2439;DHT22;14509;47.992;7.848;2024-03-02T05:51:55;11.80;45.90
2439;DHT22;14509;47.992;7.848;2024-03-02T05:53:58;11.70;45.70
2439;DHT22;14509;47.992;7.848;2024-03-02T05:56:00;12.90;46.50
2439;DHT22;14509;47.992;7.848;2024-03-02T05:58:02;11.80;45.50
2439;DHT22;14509;47.992;7.848;2024-03-02T06:00:18;11.80;45.40
2439;DHT22;14509;47.992;7.848;2024-03-02T06:02:20;11.90;45.30
2439;DHT22;14509;47.992;7.848;2024-03-02T06:04:21;11.90;45.20
2439;DHT22;14509;47.992;7.848;2024-03-02T06:06:23;11.90;45.20
2439;DHT22;14509;47.992;7.848;2024-03-02T06:08:24;11.90;45.20
2439;DHT22;14509;47.992;7.848;2024-03-02T06:10:28;11.90;45.30
2439;DHT22;14509;47.992;7.848;2024-03-02T06:12:31;12.00;45.30
2439;DHT22;14509;47.992;7.848;2024-03-02T06:14:32;12.00;45.30
2439;DHT22;14509;47.992;7.848;2024-03-02T06:16:35;12.00;45.40
2439;DHT22;14509;47.992;7.848;2024-03-02T06:18:36;12.00;45.30
2439;DHT22;14509;47.992;7.848;2024-03-02T06:20:38;12.00;45.30
2439;DHT22;14509;47.992;7.848;2024-03-02T06:22:39;12.00;45.40
2439;DHT22;14509;47.992;7.848;2024-03-02T06:24:41;12.00;45.40
2439;DHT22;14509;47.992;7.848;2024-03-02T06:26:44;12.00;45.40
2439;DHT22;14509;47.992;7.848;2024-03-02T06:28:46;12.00;45.30
2439;DHT22;14509;47.992;7.848;2024-03-02T06:30:47;12.10;45.40
2439;DHT22;14509;47.992;7.848;2024-03-02T06:32:49;12.00;45.20
2439;DHT22;14509;47.992;7.848;2024-03-02T06:34:51;12.00;45.30
2439;DHT22;14509;47.992;7.848;2024-03-02T06:36:52;12.00;45.40
2439;DHT22;14509;47.992;7.848;2024-03-02T06:38:54;12.00;45.50
2439;DHT22;14509;47.992;7.848;2024-03-02T06:40:55;12.00;45.50
2439;DHT22;14509;47.992;7.848;2024-03-02T06:42:59;12.00;45.50
2439;DHT22;14509;47.992;7.848;2024-03-02T06:45:01;12.00;45.50
2439;DHT22;14509;47.992;7.848;2024-03-02T06:47:03;12.10;45.70
2439;DHT22;14509;47.992;7.848;2024-03-02T06:49:05;12.00;45.70
2439;DHT22;14509;47.992;7.848;2024-03-02T06:51:07;12.00;45.70
2439;DHT22;14509;47.992;7.848;2024-03-02T06:53:09;12.00;45.80
2439;DHT22;14509;47.992;7.848;2024-03-02T06:55:11;12.00;45.80
2439;DHT22;14509;47.992;7.848;2024-03-02T06:57:13;12.00;45.70
2439;DHT22;14509;47.992;7.848;2024-03-02T06:59:16;12.00;45.70
2439;DHT22;14509;47.992;7.848;2024-03-02T07:01:18;12.10;45.70
2439;DHT22;14509;47.992;7.848;2024-03-02T07:03:20;12.00;45.70
2439;DHT22;14509;47.992;7.848;2024-03-02T07:05:22;12.10;45.90
2439;DHT22;14509;47.992;7.848;2024-03-02T07:07:24;12.10;45.90
2439;DHT22;14509;47.992;7.848;2024-03-02T07:09:26;12.20;45.90
2439;DHT22;14509;47.992;7.848;2024-03-02T07:11:27;12.20;45.80
2439;DHT22;14509;47.992;7.848;2024-03-02T07:13:28;12.30;45.90
2439;DHT22;14509;47.992;7.848;2024-03-02T07:15:32;12.30;45.70
2439;DHT22;14509;47.992;7.848;2024-03-02T07:17:55;12.30;45.70
2439;DHT22;14509;47.992;7.848;2024-03-02T07:19:56;12.40;45.60
2439;DHT22;14509;47.992;7.848;2024-03-02T07:21:58;12.40;45.50
2439;DHT22;14509;47.992;7.848;2024-03-02T07:23:58;12.50;45.50
2439;DHT22;14509;47.992;7.848;2024-03-02T07:26:03;12.50;45.50
2439;DHT22;14509;47.992;7.848;2024-03-02T07:28:05;12.50;45.40
2439;DHT22;14509;47.992;7.848;2024-03-02T07:30:08;12.60;45.50
2439;DHT22;14509;47.992;7.848;2024-03-02T07:32:13;12.60;45.50
2439;DHT22;14509;47.992;7.848;2024-03-02T07:34:15;12.70;45.40
2439;DHT22;14509;47.992;7.848;2024-03-02T07:36:17;12.70;45.40
2439;DHT22;14509;47.992;7.848;2024-03-02T07:38:20;12.80;45.20
2439;DHT22;14509;47.992;7.848;2024-03-02T07:40:22;12.80;45.20
2439;DHT22;14509;47.992;7.848;2024-03-02T07:42:23;13.10;45.30
2439;DHT22;14509;47.992;7.848;2024-03-02T07:44:25;12.90;45.20
2439;DHT22;14509;47.992;7.848;2024-03-02T07:46:27;13.00;45.10
2439;DHT22;14509;47.992;7.848;2024-03-02T07:48:30;13.10;45.60
2439;DHT22;14509;47.992;7.848;2024-03-02T07:50:32;13.10;44.90
2439;DHT22;14509;47.992;7.848;2024-03-02T07:52:35;13.20;45.00
2439;DHT22;14509;47.992;7.848;2024-03-02T07:54:37;13.20;44.80
2439;DHT22;14509;47.992;7.848;2024-03-02T07:56:39;13.30;44.70
2439;DHT22;14509;47.992;7.848;2024-03-02T07:58:41;13.30;44.30
2439;DHT22;14509;47.992;7.848;2024-03-02T08:00:43;13.40;44.30
2439;DHT22;14509;47.992;7.848;2024-03-02T08:02:45;13.50;44.20
2439;DHT22;14509;47.992;7.848;2024-03-02T08:04:48;13.60;44.10
2439;DHT22;14509;47.992;7.848;2024-03-02T08:06:49;13.70;44.00
2439;DHT22;14509;47.992;7.848;2024-03-02T08:08:51;13.80;43.80
2439;DHT22;14509;47.992;7.848;2024-03-02T08:10:53;13.80;43.60
2439;DHT22;14509;47.992;7.848;2024-03-02T08:12:54;13.90;43.60
2439;DHT22;14509;47.992;7.848;2024-03-02T08:14:56;14.00;43.40
2439;DHT22;14509;47.992;7.848;2024-03-02T08:16:58;14.10;43.40
2439;DHT22;14509;47.992;7.848;2024-03-02T08:19:02;14.30;43.50
2439;DHT22;14509;47.992;7.848;2024-03-02T08:21:05;14.20;43.40
2439;DHT22;14509;47.992;7.848;2024-03-02T08:23:08;14.70;43.60
2439;DHT22;14509;47.992;7.848;2024-03-02T08:25:10;14.40;43.30
2439;DHT22;14509;47.992;7.848;2024-03-02T08:27:12;14.50;43.30
2439;DHT22;14509;47.992;7.848;2024-03-02T08:29:15;14.60;43.20
2439;DHT22;14509;47.992;7.848;2024-03-02T08:31:17;14.70;43.10
2439;DHT22;14509;47.992;7.848;2024-03-02T08:33:19;14.80;42.90
2439;DHT22;14509;47.992;7.848;2024-03-02T08:35:19;14.80;42.50
2439;DHT22;14509;47.992;7.848;2024-03-02T08:37:24;14.90;42.50
2439;DHT22;14509;47.992;7.848;2024-03-02T08:39:26;15.00;42.20
2439;DHT22;14509;47.992;7.848;2024-03-02T08:41:28;15.10;41.90
2439;DHT22;14509;47.992;7.848;2024-03-02T08:43:30;15.20;41.80
2439;DHT22;14509;47.992;7.848;2024-03-02T08:45:32;15.30;41.80
2439;DHT22;14509;47.992;7.848;2024-03-02T08:47:35;15.40;41.70
2439;DHT22;14509;47.992;7.848;2024-03-02T08:49:37;15.50;41.50
2439;DHT22;14509;47.992;7.848;2024-03-02T08:51:38;15.60;41.30
2439;DHT22;14509;47.992;7.848;2024-03-02T08:53:41;15.70;41.20
2439;DHT22;14509;47.992;7.848;2024-03-02T08:55:43;15.60;40.80
2439;DHT22;14509;47.992;7.848;2024-03-02T08:57:45;15.80;40.50
2439;DHT22;14509;47.992;7.848;2024-03-02T08:59:47;15.90;40.40
2439;DHT22;14509;47.992;7.848;2024-03-02T09:01:49;16.10;40.40
2439;DHT22;14509;47.992;7.848;2024-03-02T09:03:51;16.20;40.20
2439;DHT22;14509;47.992;7.848;2024-03-02T09:05:53;16.30;40.20
2439;DHT22;14509;47.992;7.848;2024-03-02T09:07:54;16.40;40.00
2439;DHT22;14509;47.992;7.848;2024-03-02T09:09:58;16.50;39.70
2439;DHT22;14509;47.992;7.848;2024-03-02T09:12:00;16.70;39.70
2439;DHT22;14509;47.992;7.848;2024-03-02T09:14:02;16.70;39.30
2439;DHT22;14509;47.992;7.848;2024-03-02T09:16:04;16.80;38.80
2439;DHT22;14509;47.992;7.848;2024-03-02T09:18:06;16.90;39.20
2439;DHT22;14509;47.992;7.848;2024-03-02T09:20:09;17.00;38.40
2439;DHT22;14509;47.992;7.848;2024-03-02T09:22:11;17.20;38.20
2439;DHT22;14509;47.992;7.848;2024-03-02T09:24:12;17.30;37.50
2439;DHT22;14509;47.992;7.848;2024-03-02T09:26:15;17.40;37.40
2439;DHT22;14509;47.992;7.848;2024-03-02T09:28:17;17.50;37.10
2439;DHT22;14509;47.992;7.848;2024-03-02T09:30:19;17.60;37.10
2439;DHT22;14509;47.992;7.848;2024-03-02T09:32:20;17.80;37.00
2439;DHT22;14509;47.992;7.848;2024-03-02T09:34:21;17.80;36.00
2439;DHT22;14509;47.992;7.848;2024-03-02T09:36:24;17.90;35.50
2439;DHT22;14509;47.992;7.848;2024-03-02T09:38:25;18.00;34.50
2439;DHT22;14509;47.992;7.848;2024-03-02T09:40:27;18.10;34.40
2439;DHT22;14509;47.992;7.848;2024-03-02T09:42:31;18.20;34.40
2439;DHT22;14509;47.992;7.848;2024-03-02T09:44:33;18.30;33.90
2439;DHT22;14509;47.992;7.848;2024-03-02T09:46:34;18.50;33.30
2439;DHT22;14509;47.992;7.848;2024-03-02T09:48:37;18.50;32.80
2439;DHT22;14509;47.992;7.848;2024-03-02T09:50:39;18.60;32.90
2439;DHT22;14509;47.992;7.848;2024-03-02T09:52:42;18.70;32.80
2439;DHT22;14509;47.992;7.848;2024-03-02T09:54:43;18.70;32.50
2439;DHT22;14509;47.992;7.848;2024-03-02T09:56:45;18.80;32.10
2439;DHT22;14509;47.992;7.848;2024-03-02T09:58:47;18.90;31.60
2439;DHT22;14509;47.992;7.848;2024-03-02T10:00:49;19.00;31.20
2439;DHT22;14509;47.992;7.848;2024-03-02T10:02:51;19.00;31.30
2439;DHT22;14509;47.992;7.848;2024-03-02T10:04:53;19.10;31.80
2439;DHT22;14509;47.992;7.848;2024-03-02T10:07:09;19.20;32.20
2439;DHT22;14509;47.992;7.848;2024-03-02T10:09:26;19.20;32.10
2439;DHT22;14509;47.992;7.848;2024-03-02T10:11:30;19.30;32.00
2439;DHT22;14509;47.992;7.848;2024-03-02T10:13:33;19.30;32.00
2439;DHT22;14509;47.992;7.848;2024-03-02T10:15:37;19.30;31.80
2439;DHT22;14509;47.992;7.848;2024-03-02T10:17:41;19.40;31.60
2439;DHT22;14509;47.992;7.848;2024-03-02T10:19:43;19.40;31.00
2439;DHT22;14509;47.992;7.848;2024-03-02T10:21:45;19.40;30.00
2439;DHT22;14509;47.992;7.848;2024-03-02T10:23:46;19.40;30.00
2439;DHT22;14509;47.992;7.848;2024-03-02T10:25:48;19.50;30.20
2439;DHT22;14509;47.992;7.848;2024-03-02T10:27:50;19.50;30.10
2439;DHT22;14509;47.992;7.848;2024-03-02T10:29:51;19.50;29.90
2439;DHT22;14509;47.992;7.848;2024-03-02T10:31:54;19.60;30.00
2439;DHT22;14509;47.992;7.848;2024-03-02T10:33:57;19.60;30.00
2439;DHT22;14509;47.992;7.848;2024-03-02T10:36:00;19.60;30.00
2439;DHT22;14509;47.992;7.848;2024-03-02T10:38:04;19.60;30.00
2439;DHT22;14509;47.992;7.848;2024-03-02T10:40:06;19.70;30.00
2439;DHT22;14509;47.992;7.848;2024-03-02T10:42:09;19.70;30.00
2439;DHT22;14509;47.992;7.848;2024-03-02T10:44:11;19.70;29.90
2439;DHT22;14509;47.992;7.848;2024-03-02T10:46:14;19.70;29.80
2439;DHT22;14509;47.992;7.848;2024-03-02T10:48:18;19.80;29.50
2439;DHT22;14509;47.992;7.848;2024-03-02T10:50:22;19.80;29.50
2439;DHT22;14509;47.992;7.848;2024-03-02T10:52:25;19.80;29.40
2439;DHT22;14509;47.992;7.848;2024-03-02T10:54:27;19.80;29.40
2439;DHT22;14509;47.992;7.848;2024-03-02T10:56:31;19.80;29.30
2439;DHT22;14509;47.992;7.848;2024-03-02T10:58:33;19.90;29.40
2439;DHT22;14509;47.992;7.848;2024-03-02T11:00:38;19.90;29.20
2439;DHT22;14509;47.992;7.848;2024-03-02T11:02:42;19.90;29.30
2439;DHT22;14509;47.992;7.848;2024-03-02T11:04:50;19.90;29.20
2439;DHT22;14509;47.992;7.848;2024-03-02T11:07:00;19.90;29.30
2439;DHT22;14509;47.992;7.848;2024-03-02T11:09:06;20.00;29.50
2439;DHT22;14509;47.992;7.848;2024-03-02T11:11:15;20.00;29.40
2439;DHT22;14509;47.992;7.848;2024-03-02T11:13:22;20.10;29.40
2439;DHT22;14509;47.992;7.848;2024-03-02T11:15:27;20.20;29.00
2439;DHT22;14509;47.992;7.848;2024-03-02T11:17:29;20.20;28.80
2439;DHT22;14509;47.992;7.848;2024-03-02T11:19:31;20.20;28.90
2439;DHT22;14509;47.992;7.848;2024-03-02T11:21:36;20.30;29.00
2439;DHT22;14509;47.992;7.848;2024-03-02T11:23:39;20.40;29.00
2439;DHT22;14509;47.992;7.848;2024-03-02T11:25:40;20.50;28.60
2439;DHT22;14509;47.992;7.848;2024-03-02T11:28:07;20.50;28.60
2439;DHT22;14509;47.992;7.848;2024-03-02T11:30:48;20.60;29.00
2439;DHT22;14509;47.992;7.848;2024-03-02T11:32:55;20.70;29.40
2439;DHT22;14509;47.992;7.848;2024-03-02T11:34:59;20.80;29.50
2439;DHT22;14509;47.992;7.848;2024-03-02T11:37:03;21.00;29.00
2439;DHT22;14509;47.992;7.848;2024-03-02T11:39:04;21.20;28.80
2439;DHT22;14509;47.992;7.848;2024-03-02T11:41:07;21.20;28.20
2439;DHT22;14509;47.992;7.848;2024-03-02T11:43:11;21.20;29.00
2439;DHT22;14509;47.992;7.848;2024-03-02T11:45:16;21.30;28.80
2439;DHT22;14509;47.992;7.848;2024-03-02T11:47:18;21.60;28.70
2439;DHT22;14509;47.992;7.848;2024-03-02T11:49:37;21.40;28.20
2439;DHT22;14509;47.992;7.848;2024-03-02T11:51:38;21.50;28.20
2439;DHT22;14509;47.992;7.848;2024-03-02T11:53:54;21.60;28.10
2439;DHT22;14509;47.992;7.848;2024-03-02T11:55:57;21.70;27.70
2439;DHT22;14509;47.992;7.848;2024-03-02T11:58:01;21.70;27.80
2439;DHT22;14509;47.992;7.848;2024-03-02T12:00:05;21.80;28.00
2439;DHT22;14509;47.992;7.848;2024-03-02T12:02:14;21.80;27.70
2439;DHT22;14509;47.992;7.848;2024-03-02T12:04:16;21.90;27.60
2439;DHT22;14509;47.992;7.848;2024-03-02T12:06:18;22.00;27.50
2439;DHT22;14509;47.992;7.848;2024-03-02T12:08:22;22.00;27.30
2439;DHT22;14509;47.992;7.848;2024-03-02T12:10:25;22.00;27.40
2439;DHT22;14509;47.992;7.848;2024-03-02T12:12:27;22.00;27.40
2439;DHT22;14509;47.992;7.848;2024-03-02T12:14:29;22.10;27.60
2439;DHT22;14509;47.992;7.848;2024-03-02T12:16:30;22.30;27.50
2439;DHT22;14509;47.992;7.848;2024-03-02T12:18:32;22.40;27.20
2439;DHT22;14509;47.992;7.848;2024-03-02T12:20:34;23.30;27.40
2439;DHT22;14509;47.992;7.848;2024-03-02T12:22:36;22.60;26.80
2439;DHT22;14509;47.992;7.848;2024-03-02T12:24:38;22.70;26.80
2439;DHT22;14509;47.992;7.848;2024-03-02T12:26:41;22.70;26.80
2439;DHT22;14509;47.992;7.848;2024-03-02T12:28:43;22.80;26.80
2439;DHT22;14509;47.992;7.848;2024-03-02T12:30:45;22.90;26.70
2439;DHT22;14509;47.992;7.848;2024-03-02T12:32:48;22.90;26.60
2439;DHT22;14509;47.992;7.848;2024-03-02T12:34:50;23.00;26.60
2439;DHT22;14509;47.992;7.848;2024-03-02T12:36:53;23.10;26.40
2439;DHT22;14509;47.992;7.848;2024-03-02T12:38:55;23.10;26.20
2439;DHT22;14509;47.992;7.848;2024-03-02T12:40:57;23.10;26.00
2439;DHT22;14509;47.992;7.848;2024-03-02T12:43:01;23.10;25.80
2439;DHT22;14509;47.992;7.848;2024-03-02T12:45:03;23.10;25.80
2439;DHT22;14509;47.992;7.848;2024-03-02T12:47:05;23.10;25.20
2439;DHT22;14509;47.992;7.848;2024-03-02T12:49:08;23.20;25.10
2439;DHT22;14509;47.992;7.848;2024-03-02T12:51:11;23.20;25.20
2439;DHT22;14509;47.992;7.848;2024-03-02T12:53:15;23.20;24.90
2439;DHT22;14509;47.992;7.848;2024-03-02T12:55:17;23.20;25.20
2439;DHT22;14509;47.992;7.848;2024-03-02T12:57:19;23.20;25.20
2439;DHT22;14509;47.992;7.848;2024-03-02T12:59:24;23.30;25.30
2439;DHT22;14509;47.992;7.848;2024-03-02T13:01:27;23.20;25.50
2439;DHT22;14509;47.992;7.848;2024-03-02T13:03:29;23.10;25.30
2439;DHT22;14509;47.992;7.848;2024-03-02T13:05:31;23.10;24.80
2439;DHT22;14509;47.992;7.848;2024-03-02T13:07:34;23.20;24.50
2439;DHT22;14509;47.992;7.848;2024-03-02T13:09:36;23.20;24.50